Giants Castle Airport


Codes: FAGS/
Name: Giants Castle Airport
City: GiantS Castle Game Reserve
Country: South Africa
Elevation: 6086 ft.

Photos at Giants Castle Airport


   Photos courtesy of SpottingLog. You can add your own sightings and photos by signing up for a free trial today.



No photos found.

Weather at Giants Castle Airport


Time (UTC)DescriptionTempratureWindCloud coverageVisibilityPressureHumidity
25-Jun-2024 15:00Clear Sky13°C4 mph, 1%10000m1029hPa37%
25-Jun-2024 18:00Clear Sky9°C2 mph, SW1%10000m1031hPa60%
25-Jun-2024 21:00Clear Sky5°C2 mph, SW2%10000m1033hPa74%
26-Jun-2024 00:00Clear Sky4°C4 mph, SW1%10000m1032hPa77%
26-Jun-2024 03:00Clear Sky4°C4 mph, SW0%10000m1032hPa65%
26-Jun-2024 06:00Clear Sky7°C2 mph, SW0%10000m1033hPa47%
26-Jun-2024 09:00Clear Sky14°C4 mph, NE1%10000m1031hPa31%
26-Jun-2024 12:00Clear Sky15°C4 mph, NE0%10000m1028hPa31%
26-Jun-2024 15:00Clear Sky9°C2 mph, E0%10000m1029hPa56%
26-Jun-2024 18:00Clear Sky6°C2 mph, SW3%10000m1033hPa77%
26-Jun-2024 21:00Clear Sky5°C4 mph, SW0%10000m1034hPa79%
27-Jun-2024 00:00Clear Sky5°C4 mph, W0%10000m1032hPa72%
27-Jun-2024 03:00Clear Sky5°C2 mph, SW0%10000m1033hPa62%
27-Jun-2024 06:00Clear Sky7°C2 mph, NW0%10000m1033hPa51%
27-Jun-2024 09:00Clear Sky14°C4 mph, NE0%10000m1032hPa35%
27-Jun-2024 12:00Clear Sky15°C7 mph, NE0%10000m1029hPa35%
27-Jun-2024 15:00Clear Sky9°C4 mph, N0%10000m1030hPa63%
27-Jun-2024 18:00Clear Sky7°C4 mph, W0%10000m1032hPa75%
27-Jun-2024 21:00Clear Sky6°C4 mph, W0%10000m1032hPa71%
28-Jun-2024 00:00Clear Sky6°C4 mph, W0%10000m1030hPa65%
28-Jun-2024 03:00Clear Sky6°C4 mph, W0%10000m1030hPa62%
28-Jun-2024 06:00Clear Sky8°C2 mph, W0%10000m1030hPa50%
28-Jun-2024 09:00Clear Sky14°C4 mph, NE0%10000m1027hPa33%
28-Jun-2024 12:00Clear Sky16°C7 mph, NE0%10000m1024hPa31%
28-Jun-2024 15:00Clear Sky10°C2 mph, N0%10000m1025hPa53%
28-Jun-2024 18:00Clear Sky8°C4 mph, W0%10000m1026hPa58%
28-Jun-2024 21:00Clear Sky7°C4 mph, W0%10000m1026hPa56%
29-Jun-2024 00:00Clear Sky7°C4 mph, W0%10000m1025hPa57%
29-Jun-2024 03:00Clear Sky6°C7 mph, SW1%10000m1024hPa59%
29-Jun-2024 06:00Clear Sky8°C7 mph, SW2%10000m1025hPa55%
29-Jun-2024 09:00Clear Sky15°C2 mph, N6%10000m1022hPa30%
29-Jun-2024 12:00Scattered Clouds16°C4 mph, NW25%10000m1019hPa28%
29-Jun-2024 15:00Broken Clouds11°C4 mph, W51%10000m1020hPa43%
29-Jun-2024 18:00Scattered Clouds8°C7 mph, SW47%10000m1022hPa56%
29-Jun-2024 21:00Few Clouds7°C7 mph, W14%10000m1022hPa60%
30-Jun-2024 00:00Clear Sky7°C7 mph, W7%10000m1021hPa61%
30-Jun-2024 03:00Clear Sky7°C7 mph, W0%10000m1021hPa56%
30-Jun-2024 06:00Clear Sky9°C7 mph, W6%10000m1022hPa51%
30-Jun-2024 09:00Clear Sky17°C2 mph, N5%10000m1019hPa30%
30-Jun-2024 12:00Few Clouds17°C7 mph, NW22%10000m1017hPa29%